createdAt,value
2022-12-11T00:02:05.201Z,10.91
2022-12-11T00:04:32.411Z,10.95
2022-12-11T00:06:59.161Z,11.00
2022-12-11T00:09:25.734Z,11.05
2022-12-11T00:11:52.693Z,11.06
2022-12-11T00:14:19.461Z,11.13
2022-12-11T00:16:48.247Z,11.17
2022-12-11T00:19:15.647Z,11.18
2022-12-11T00:21:42.478Z,11.21
2022-12-11T00:24:09.067Z,11.24
2022-12-11T00:26:35.934Z,11.33
2022-12-11T00:29:02.766Z,11.40
2022-12-11T00:31:29.501Z,11.47
2022-12-11T00:33:56.683Z,11.49
2022-12-11T00:36:25.750Z,11.51
2022-12-11T00:38:53.099Z,11.56
2022-12-11T00:41:20.481Z,11.60
2022-12-11T00:43:47.484Z,11.56
2022-12-11T00:46:14.470Z,11.72
2022-12-11T00:48:41.370Z,11.85
2022-12-11T00:51:08.125Z,11.99
2022-12-11T00:53:34.777Z,12.09
2022-12-11T00:56:01.814Z,12.18
2022-12-11T00:58:28.568Z,12.25
2022-12-11T01:00:55.282Z,12.31
2022-12-11T01:03:22.135Z,12.33
2022-12-11T01:05:54.063Z,12.44
2022-12-11T01:08:21.177Z,12.48
2022-12-11T01:10:48.298Z,12.55
2022-12-11T01:13:15.662Z,12.60
2022-12-11T01:15:44.928Z,12.64
2022-12-11T01:18:14.102Z,12.67
2022-12-11T01:20:42.653Z,12.67
2022-12-11T01:23:12.511Z,12.69
2022-12-11T01:25:39.802Z,12.68
2022-12-11T01:28:07.561Z,12.67
2022-12-11T01:30:34.697Z,12.66
2022-12-11T01:33:01.534Z,12.64
2022-12-11T01:35:28.299Z,12.61
2022-12-11T01:37:55.574Z,12.66
2022-12-11T01:40:23.308Z,12.65
2022-12-11T01:42:50.391Z,12.63
2022-12-11T01:45:29.415Z,12.65
2022-12-11T01:47:59.551Z,12.63
2022-12-11T01:50:26.526Z,12.63
2022-12-11T01:52:53.730Z,12.62
2022-12-11T01:55:21.735Z,12.56
2022-12-11T01:57:51.187Z,12.58
2022-12-11T02:00:19.033Z,12.59
2022-12-11T02:02:45.785Z,12.56
2022-12-11T02:05:12.981Z,12.57
2022-12-11T02:07:47.129Z,12.57
2022-12-11T02:10:14.338Z,12.57
2022-12-11T02:12:57.844Z,12.61
2022-12-11T02:15:27.704Z,12.60
2022-12-11T02:18:16.440Z,12.56
2022-12-11T02:20:45.858Z,12.54
2022-12-11T02:23:15.043Z,12.49
2022-12-11T02:26:18.913Z,12.45
2022-12-11T02:28:58.892Z,12.40
2022-12-11T02:31:40.137Z,12.37
2022-12-11T02:34:16.047Z,12.32
2022-12-11T02:36:47.114Z,12.23
2022-12-11T02:39:16.779Z,12.21
2022-12-11T02:41:50.476Z,12.17
2022-12-11T02:44:21.690Z,12.14
2022-12-11T02:46:49.433Z,12.08
2022-12-11T02:49:17.971Z,12.09
2022-12-11T02:51:44.634Z,12.09
2022-12-11T02:54:17.006Z,12.06
2022-12-11T02:56:48.107Z,12.08
2022-12-11T02:59:30.689Z,12.06
2022-12-11T03:01:57.870Z,12.02
2022-12-11T03:04:25.042Z,12.00
2022-12-11T03:06:56.472Z,11.96
2022-12-11T03:09:23.571Z,11.76
2022-12-11T03:11:50.148Z,11.95
2022-12-11T03:14:16.745Z,11.92
2022-12-11T03:16:55.872Z,11.90
2022-12-11T03:19:47.797Z,11.91
2022-12-11T03:22:41.203Z,11.89
2022-12-11T03:25:15.588Z,11.83
2022-12-11T03:27:56.201Z,11.87
2022-12-11T03:30:24.744Z,11.75
2022-12-11T03:32:54.259Z,11.85
2022-12-11T03:35:33.674Z,11.83
2022-12-11T03:38:07.741Z,11.82
2022-12-11T03:40:37.290Z,11.82
2022-12-11T03:43:05.007Z,11.80
2022-12-11T03:45:33.977Z,11.79
2022-12-11T03:48:03.126Z,11.76
2022-12-11T03:50:32.618Z,11.71
2022-12-11T03:53:01.924Z,11.67
2022-12-11T03:55:31.224Z,11.65
2022-12-11T03:57:58.035Z,11.62
2022-12-11T04:00:24.869Z,11.61
2022-12-11T04:03:13.599Z,11.55
2022-12-11T04:05:42.963Z,11.54
2022-12-11T04:08:09.994Z,11.55
2022-12-11T04:10:37.019Z,11.52
2022-12-11T04:13:03.860Z,11.50
2022-12-11T04:15:30.582Z,11.46
2022-12-11T04:18:15.888Z,11.45
2022-12-11T04:21:01.268Z,11.44
2022-12-11T04:23:46.575Z,11.41
2022-12-11T04:26:16.415Z,11.45
2022-12-11T04:28:45.005Z,11.46
2022-12-11T04:31:14.492Z,11.46
2022-12-11T04:33:41.656Z,11.46
2022-12-11T04:36:09.522Z,11.41
2022-12-11T04:38:36.994Z,11.45
2022-12-11T04:41:06.786Z,11.41
2022-12-11T04:43:33.789Z,11.39
2022-12-11T04:46:06.316Z,11.38
2022-12-11T04:48:33.390Z,11.34
2022-12-11T04:51:00.158Z,11.29
2022-12-11T04:53:28.398Z,11.26
2022-12-11T04:55:55.369Z,11.25
2022-12-11T04:58:23.254Z,11.25
2022-12-11T05:00:50.053Z,11.25
2022-12-11T05:03:16.789Z,11.22
2022-12-11T05:05:53.833Z,11.22
2022-12-11T05:08:21.570Z,11.21
2022-12-11T05:11:03.257Z,11.21
2022-12-11T05:13:30.362Z,11.19
2022-12-11T05:15:58.123Z,11.07
2022-12-11T05:18:25.486Z,11.18
2022-12-11T05:21:00.803Z,11.16
2022-12-11T05:23:28.149Z,11.11
2022-12-11T05:25:56.366Z,11.10
2022-12-11T05:28:25.078Z,11.05
2022-12-11T05:31:04.306Z,11.04
2022-12-11T05:33:31.902Z,11.07
2022-12-11T05:35:58.776Z,11.07
2022-12-11T05:38:25.788Z,11.06
2022-12-11T05:41:00.545Z,11.03
2022-12-11T05:43:29.082Z,10.98
2022-12-11T05:45:56.123Z,10.97
2022-12-11T05:48:23.070Z,10.94
2022-12-11T05:51:00.972Z,10.95
2022-12-11T05:53:28.911Z,10.99
2022-12-11T05:55:55.774Z,10.97
2022-12-11T05:58:22.553Z,11.02
2022-12-11T06:00:49.325Z,10.98
2022-12-11T06:03:16.017Z,10.97
2022-12-11T06:05:43.531Z,10.99
2022-12-11T06:08:10.316Z,10.99
2022-12-11T06:10:37.387Z,10.99
2022-12-11T06:13:04.389Z,11.01
2022-12-11T06:15:31.023Z,11.05
2022-12-11T06:17:57.574Z,11.09
2022-12-11T06:20:24.315Z,11.10
2022-12-11T06:22:51.118Z,11.11
2022-12-11T06:25:17.932Z,11.29
2022-12-11T06:27:44.756Z,11.42
2022-12-11T06:30:11.865Z,11.51
2022-12-11T06:32:38.491Z,11.57
2022-12-11T06:35:05.928Z,11.59
2022-12-11T06:37:32.507Z,11.65
2022-12-11T06:39:59.366Z,11.68
2022-12-11T06:42:26.265Z,11.72
2022-12-11T06:44:52.865Z,11.79
2022-12-11T06:47:19.997Z,11.84
2022-12-11T06:49:46.786Z,11.88
2022-12-11T06:52:18.188Z,11.95
2022-12-11T06:54:45.175Z,11.95
2022-12-11T06:57:12.200Z,11.92
2022-12-11T06:59:38.952Z,11.91
2022-12-11T07:02:05.750Z,11.88
2022-12-11T07:04:32.790Z,11.84
2022-12-11T07:06:59.739Z,11.84
2022-12-11T07:09:26.320Z,11.88
2022-12-11T07:11:53.637Z,11.80
2022-12-11T07:14:21.255Z,11.87
2022-12-11T07:16:47.982Z,11.87
2022-12-11T07:19:15.029Z,11.85
2022-12-11T07:21:41.736Z,11.85
2022-12-11T07:24:08.906Z,11.87
2022-12-11T07:26:36.048Z,11.84
2022-12-11T07:29:03.073Z,11.88
2022-12-11T07:31:30.652Z,11.87
2022-12-11T07:34:00.672Z,11.88
2022-12-11T07:36:28.226Z,11.92
2022-12-11T07:38:54.834Z,11.94
2022-12-11T07:41:22.526Z,11.97
2022-12-11T07:43:49.758Z,11.97
2022-12-11T07:46:19.964Z,12.01
2022-12-11T07:48:48.525Z,12.03
2022-12-11T07:51:27.844Z,12.05
2022-12-11T07:54:03.741Z,12.07
2022-12-11T07:56:31.990Z,12.06
2022-12-11T07:59:03.794Z,12.06
2022-12-11T08:01:32.571Z,12.06
2022-12-11T08:03:59.353Z,12.02
2022-12-11T08:06:31.377Z,12.07
2022-12-11T08:08:59.731Z,12.06
2022-12-11T08:11:26.953Z,12.05
2022-12-11T08:13:54.545Z,12.04
2022-12-11T08:16:21.802Z,12.02
2022-12-11T08:18:49.188Z,11.98
2022-12-11T08:21:18.641Z,11.94
2022-12-11T08:23:46.579Z,11.88
2022-12-11T08:26:18.860Z,11.82
2022-12-11T08:28:45.650Z,11.74
2022-12-11T08:31:14.920Z,11.68
2022-12-11T08:33:42.450Z,11.59
2022-12-11T08:36:12.418Z,11.51
2022-12-11T08:38:39.332Z,11.51
2022-12-11T08:41:13.387Z,11.48
2022-12-11T08:43:40.157Z,11.36
2022-12-11T08:46:07.540Z,11.37
2022-12-11T08:48:35.433Z,11.25
2022-12-11T08:51:04.683Z,11.13
2022-12-11T08:53:32.165Z,11.01
2022-12-11T08:56:04.063Z,10.92
2022-12-11T08:58:30.692Z,10.81
2022-12-11T09:00:57.719Z,10.73
2022-12-11T09:03:25.286Z,10.66
2022-12-11T09:05:51.922Z,10.52
2022-12-11T09:08:18.704Z,10.42
2022-12-11T09:10:47.371Z,10.30
2022-12-11T09:13:13.992Z,10.26
2022-12-11T09:15:41.987Z,10.21
2022-12-11T09:18:09.073Z,10.05
2022-12-11T09:20:35.724Z,9.96
2022-12-11T09:23:02.907Z,9.85
2022-12-11T09:25:29.582Z,9.76
2022-12-11T09:27:56.163Z,9.65
2022-12-11T09:30:22.884Z,9.54
2022-12-11T09:32:49.588Z,9.44
2022-12-11T09:35:16.226Z,9.35
2022-12-11T09:37:47.378Z,9.30
2022-12-11T09:40:15.135Z,9.25
2022-12-11T09:43:09.387Z,9.21
2022-12-11T09:45:36.277Z,9.13
2022-12-11T09:48:03.054Z,9.12
2022-12-11T09:50:34.665Z,9.12
2022-12-11T09:53:21.914Z,9.08
2022-12-11T09:55:51.505Z,9.02
2022-12-11T09:58:21.157Z,8.94
2022-12-11T10:00:53.510Z,8.83
2022-12-11T10:03:51.762Z,8.75
2022-12-11T10:06:25.496Z,8.66
2022-12-11T10:09:33.728Z,8.60
2022-12-11T10:12:03.389Z,8.56
2022-12-11T10:14:42.170Z,8.53
2022-12-11T10:17:13.573Z,8.49
2022-12-11T10:19:41.923Z,8.52
2022-12-11T10:22:20.514Z,8.63
2022-12-11T10:25:11.557Z,8.80
2022-12-11T10:27:51.136Z,9.02
2022-12-11T10:30:22.479Z,9.15
2022-12-11T10:33:33.720Z,9.28
2022-12-11T10:36:00.811Z,9.38
2022-12-11T10:38:48.220Z,9.49
2022-12-11T10:41:22.144Z,9.62
2022-12-11T10:43:51.346Z,9.70
2022-12-11T10:46:18.010Z,9.77
2022-12-11T10:48:56.170Z,9.84
2022-12-11T10:51:26.090Z,9.88
2022-12-11T10:54:07.331Z,9.88
2022-12-11T10:56:37.585Z,9.91
2022-12-11T10:59:04.753Z,9.92
2022-12-11T11:01:37.286Z,9.85
2022-12-11T11:04:14.112Z,9.78
2022-12-11T11:06:41.009Z,9.73
2022-12-11T11:09:31.915Z,9.71
2022-12-11T11:12:00.017Z,9.75
2022-12-11T11:14:29.892Z,9.79
2022-12-11T11:16:57.894Z,9.86
2022-12-11T11:19:29.714Z,9.86
2022-12-11T11:22:05.413Z,9.90
2022-12-11T11:24:38.826Z,9.96
2022-12-11T11:27:29.555Z,10.02
2022-12-11T11:30:04.067Z,9.89
2022-12-11T11:32:41.037Z,9.92
2022-12-11T11:35:14.472Z,9.91
2022-12-11T11:37:55.414Z,9.91
2022-12-11T11:40:39.888Z,9.89
2022-12-11T11:43:36.431Z,9.89
2022-12-11T11:46:20.722Z,9.78
2022-12-11T11:49:01.684Z,9.65
2022-12-11T11:51:53.021Z,9.49
2022-12-11T11:54:48.906Z,9.47
2022-12-11T11:57:25.163Z,9.36
2022-12-11T12:00:02.152Z,9.21
2022-12-11T12:02:38.658Z,9.08
2022-12-11T12:05:08.362Z,9.03
2022-12-11T12:07:58.598Z,9.15
2022-12-11T12:10:32.120Z,9.13
2022-12-11T12:13:23.937Z,9.09
2022-12-11T12:15:58.415Z,9.00
2022-12-11T12:18:34.370Z,9.01
2022-12-11T12:21:11.091Z,9.00
2022-12-11T12:24:05.452Z,9.03
2022-12-11T12:26:44.684Z,9.08
2022-12-11T12:29:20.721Z,9.13
2022-12-11T12:32:02.355Z,9.11
2022-12-11T12:34:47.777Z,9.14
2022-12-11T12:37:37.839Z,9.18
2022-12-11T12:40:23.209Z,9.21
2022-12-11T12:42:52.716Z,9.16
2022-12-11T12:45:41.843Z,9.12
2022-12-11T12:51:16.588Z,8.99
2022-12-11T12:53:49.935Z,8.81
2022-12-11T12:56:16.974Z,8.87
2022-12-11T12:58:46.411Z,8.81
2022-12-11T13:01:12.986Z,8.79
2022-12-11T13:04:05.805Z,8.75
2022-12-11T13:06:44.294Z,8.71
2022-12-11T13:09:26.666Z,8.65
2022-12-11T13:11:57.761Z,8.68
2022-12-11T13:14:35.332Z,8.68
2022-12-11T13:17:26.462Z,8.61
2022-12-11T13:20:14.352Z,8.59
2022-12-11T13:23:14.922Z,8.56
2022-12-11T13:25:51.594Z,8.48
2022-12-11T13:28:29.769Z,8.35
2022-12-11T13:31:16.775Z,8.37
2022-12-11T13:33:50.670Z,8.37
2022-12-11T13:36:24.555Z,8.35
2022-12-11T13:38:57.428Z,8.28
2022-12-11T13:41:25.051Z,8.09
2022-12-11T13:43:52.772Z,7.88
2022-12-11T13:46:29.679Z,7.63
2022-12-11T13:49:05.011Z,7.40
2022-12-11T13:51:35.355Z,7.24
2022-12-11T13:54:23.593Z,7.10
2022-12-11T13:56:54.227Z,7.05
2022-12-11T13:59:43.155Z,6.97
2022-12-11T14:02:23.746Z,6.85
2022-12-11T14:04:56.861Z,6.76
2022-12-11T14:07:36.564Z,6.64
2022-12-11T14:10:14.556Z,6.46
2022-12-11T14:12:59.922Z,6.33
2022-12-11T14:15:28.202Z,6.22
2022-12-11T14:17:55.732Z,6.09
2022-12-11T14:20:31.959Z,5.99
2022-12-11T14:23:21.264Z,5.97
2022-12-11T14:26:21.661Z,5.90
2022-12-11T14:28:48.515Z,5.87
2022-12-11T14:31:42.814Z,5.82
2022-12-11T14:34:20.059Z,5.83
2022-12-11T14:36:48.766Z,5.83
2022-12-11T14:39:33.862Z,5.79
2022-12-11T14:42:06.107Z,5.67
2022-12-11T14:44:48.180Z,5.53
2022-12-11T14:47:20.861Z,5.48
2022-12-11T14:50:09.057Z,5.47
2022-12-11T14:52:42.620Z,5.45
2022-12-11T14:55:16.266Z,5.45
2022-12-11T14:57:47.964Z,5.44
2022-12-11T15:00:25.310Z,5.40
2022-12-11T15:03:06.257Z,5.34
2022-12-11T15:05:40.306Z,5.31
2022-12-11T15:08:10.543Z,5.27
2022-12-11T15:10:54.651Z,5.19
2022-12-11T15:13:24.931Z,5.13
2022-12-11T15:15:53.107Z,5.09
2022-12-11T15:18:32.884Z,5.07
2022-12-11T15:21:07.140Z,5.03
2022-12-11T15:23:57.875Z,5.00
2022-12-11T15:26:48.209Z,5.00
2022-12-11T15:29:26.481Z,4.98
2022-12-11T15:32:09.674Z,4.95
2022-12-11T15:34:46.232Z,4.92
2022-12-11T15:37:31.958Z,4.90
2022-12-11T15:40:01.118Z,4.77
2022-12-11T15:42:27.753Z,4.86
2022-12-11T15:44:55.608Z,4.88
2022-12-11T15:47:26.034Z,4.87
2022-12-11T15:50:21.482Z,4.87
2022-12-11T15:52:49.171Z,4.84
2022-12-11T15:55:16.851Z,4.80
2022-12-11T15:57:47.930Z,4.82
2022-12-11T16:00:16.696Z,4.82
2022-12-11T16:02:43.400Z,4.78
2022-12-11T16:05:10.546Z,4.76
2022-12-11T16:07:38.358Z,4.71
2022-12-11T16:10:06.359Z,4.68
2022-12-11T16:12:33.259Z,4.65
2022-12-11T16:15:00.106Z,4.60
2022-12-11T16:17:26.852Z,4.64
2022-12-11T16:19:54.219Z,4.65
2022-12-11T16:22:20.975Z,4.56
2022-12-11T16:24:47.675Z,4.58
2022-12-11T16:27:18.586Z,4.58
2022-12-11T16:29:48.483Z,4.53
2022-12-11T16:32:15.197Z,4.55
2022-12-11T16:34:41.841Z,4.51
2022-12-11T16:37:09.613Z,4.53
2022-12-11T16:39:38.367Z,4.55
2022-12-11T16:42:06.194Z,4.58
2022-12-11T16:44:33.368Z,4.59
2022-12-11T16:47:00.170Z,4.63
2022-12-11T16:49:31.086Z,4.61
2022-12-11T16:51:59.875Z,4.65
2022-12-11T16:54:26.496Z,4.59
2022-12-11T16:56:53.065Z,4.60
2022-12-11T16:59:19.951Z,4.56
2022-12-11T17:01:46.670Z,4.53
2022-12-11T17:04:13.360Z,4.54
2022-12-11T17:06:40.267Z,4.54
2022-12-11T17:09:07.067Z,4.48
2022-12-11T17:11:33.826Z,4.43
2022-12-11T17:14:00.859Z,4.36
2022-12-11T17:16:30.789Z,4.32
2022-12-11T17:18:58.238Z,4.25
2022-12-11T17:21:25.642Z,4.20
2022-12-11T17:23:52.240Z,4.15
2022-12-11T17:26:19.162Z,4.05
2022-12-11T17:28:46.212Z,3.98
2022-12-11T17:31:19.003Z,3.88
2022-12-11T17:33:46.732Z,3.85
2022-12-11T17:36:16.629Z,3.79
2022-12-11T17:38:43.611Z,3.76
2022-12-11T17:41:18.491Z,3.75
2022-12-11T17:43:51.532Z,3.74
2022-12-11T17:46:19.893Z,3.74
2022-12-11T17:48:47.842Z,3.74
2022-12-11T17:51:21.278Z,3.72
2022-12-11T17:53:50.322Z,3.70
2022-12-11T17:56:17.629Z,3.69
2022-12-11T17:58:44.779Z,3.71
2022-12-11T18:01:13.227Z,3.69
2022-12-11T18:03:41.042Z,3.73
2022-12-11T18:06:11.446Z,3.75
2022-12-11T18:08:38.689Z,3.65
2022-12-11T18:11:14.158Z,3.71
2022-12-11T18:13:41.788Z,3.72
2022-12-11T18:16:17.060Z,3.75
2022-12-11T18:18:44.234Z,3.79
2022-12-11T18:21:14.944Z,3.84
2022-12-11T18:23:41.916Z,3.85
2022-12-11T18:26:11.146Z,3.83
2022-12-11T18:28:37.776Z,3.81
2022-12-11T18:31:04.918Z,3.77
2022-12-11T18:33:32.288Z,3.78
2022-12-11T18:35:58.918Z,3.76
2022-12-11T18:38:25.675Z,3.80
2022-12-11T18:40:52.385Z,3.77
2022-12-11T18:43:19.028Z,3.79
2022-12-11T18:45:45.790Z,3.79
2022-12-11T18:48:13.251Z,3.77
2022-12-11T18:50:48.525Z,3.75
2022-12-11T18:53:15.575Z,3.77
2022-12-11T18:55:47.159Z,3.74
2022-12-11T18:58:16.647Z,3.71
2022-12-11T19:00:44.511Z,3.69
2022-12-11T19:03:13.689Z,3.69
2022-12-11T19:05:43.019Z,3.67
2022-12-11T19:08:12.478Z,3.61
2022-12-11T19:10:47.065Z,3.57
2022-12-11T19:13:14.370Z,3.52
2022-12-11T19:15:42.588Z,3.36
2022-12-11T19:18:10.269Z,3.40
2022-12-11T19:21:04.920Z,3.32
2022-12-11T19:23:27.036Z,3.26
2022-12-11T19:25:53.902Z,3.17
2022-12-11T19:28:20.537Z,3.15
2022-12-11T19:30:49.455Z,3.07
2022-12-11T19:33:16.600Z,2.98
2022-12-11T19:35:43.718Z,2.94
2022-12-11T19:38:10.653Z,2.87
2022-12-11T19:40:42.579Z,2.85
2022-12-11T19:43:10.059Z,2.79
2022-12-11T19:45:37.566Z,2.74
2022-12-11T19:48:04.497Z,2.66
2022-12-11T19:50:31.265Z,2.63
2022-12-11T19:52:58.445Z,2.58
2022-12-11T19:55:25.131Z,2.51
2022-12-11T19:57:51.763Z,2.41
2022-12-11T20:00:23.350Z,2.39
2022-12-11T20:02:50.105Z,2.38
2022-12-11T20:05:16.970Z,2.29
2022-12-11T20:07:46.913Z,2.31
2022-12-11T20:10:13.629Z,2.33
2022-12-11T20:12:40.398Z,2.36
2022-12-11T20:15:07.701Z,2.35
2022-12-11T20:17:36.777Z,2.30
2022-12-11T20:20:03.786Z,2.33
2022-12-11T20:22:30.515Z,2.20
2022-12-11T20:24:57.238Z,2.29
2022-12-11T20:27:23.905Z,2.25
2022-12-11T20:29:50.741Z,2.20
2022-12-11T20:32:17.522Z,2.22
2022-12-11T20:34:44.281Z,2.18
2022-12-11T20:37:11.781Z,2.12
2022-12-11T20:39:38.366Z,2.13
2022-12-11T20:42:05.142Z,2.09
2022-12-11T20:44:32.356Z,2.15
2022-12-11T20:46:59.140Z,2.16
2022-12-11T20:49:26.018Z,2.16
2022-12-11T20:51:52.972Z,2.21
2022-12-11T20:54:19.664Z,2.22
2022-12-11T20:56:46.648Z,2.25
2022-12-11T20:59:13.734Z,2.27
2022-12-11T21:01:40.832Z,2.30
2022-12-11T21:04:07.847Z,2.24
2022-12-11T21:06:37.218Z,2.28
2022-12-11T21:09:07.329Z,2.25
2022-12-11T21:11:34.712Z,2.23
2022-12-11T21:14:01.615Z,2.22
2022-12-11T21:16:28.641Z,2.19
2022-12-11T21:18:57.450Z,2.15
2022-12-11T21:21:24.977Z,2.06
2022-12-11T21:23:51.685Z,2.09
2022-12-11T21:26:18.883Z,2.06
2022-12-11T21:28:45.802Z,1.92
2022-12-11T21:31:16.290Z,2.01
2022-12-11T21:33:43.076Z,2.01
2022-12-11T21:36:12.979Z,2.02
2022-12-11T21:38:40.967Z,2.05
2022-12-11T21:41:10.596Z,2.10
2022-12-11T21:43:43.370Z,2.14
2022-12-11T21:46:27.593Z,2.21
2022-12-11T21:48:54.654Z,2.26
2022-12-11T21:51:37.165Z,2.33
2022-12-11T21:54:10.514Z,2.38
2022-12-11T21:56:37.090Z,2.39
2022-12-11T21:59:03.946Z,2.44
2022-12-11T22:01:34.404Z,2.46
2022-12-11T22:04:02.063Z,2.48
2022-12-11T22:06:28.742Z,2.52
2022-12-11T22:08:56.150Z,2.53
2022-12-11T22:11:26.823Z,2.53
2022-12-11T22:13:54.418Z,2.54
2022-12-11T22:16:21.236Z,2.57
2022-12-11T22:18:48.063Z,2.59
2022-12-11T22:21:15.767Z,2.59
2022-12-11T22:23:43.408Z,2.58
2022-12-11T22:26:15.869Z,2.62
2022-12-11T22:28:42.630Z,2.64
2022-12-11T22:31:14.490Z,2.60
2022-12-11T22:33:41.442Z,2.60
2022-12-11T22:36:08.570Z,2.55
2022-12-11T22:38:35.618Z,2.48
2022-12-11T22:41:09.609Z,2.45
2022-12-11T22:43:36.583Z,2.41
2022-12-11T22:46:03.295Z,2.40
2022-12-11T22:48:29.925Z,2.38
2022-12-11T22:50:57.598Z,2.36
2022-12-11T22:53:24.306Z,2.37
2022-12-11T22:55:50.916Z,2.36
2022-12-11T22:58:21.772Z,2.35
2022-12-11T23:00:49.216Z,2.33
2022-12-11T23:03:16.615Z,2.29
2022-12-11T23:05:43.636Z,2.27
2022-12-11T23:08:10.374Z,2.21
2022-12-11T23:10:40.567Z,2.19
2022-12-11T23:13:08.358Z,2.19
2022-12-11T23:15:35.011Z,2.20
2022-12-11T23:18:01.706Z,2.17
2022-12-11T23:20:28.703Z,2.16
2022-12-11T23:22:55.562Z,2.15
2022-12-11T23:25:22.367Z,2.10
2022-12-11T23:27:49.149Z,2.13
2022-12-11T23:30:16.010Z,2.09
2022-12-11T23:32:42.622Z,2.05
2022-12-11T23:35:10.158Z,2.04
2022-12-11T23:37:37.207Z,2.03
2022-12-11T23:40:04.388Z,1.98
2022-12-11T23:42:31.294Z,2.01
2022-12-11T23:44:57.889Z,2.00
2022-12-11T23:47:24.986Z,1.98
2022-12-11T23:49:51.964Z,1.94
2022-12-11T23:52:18.806Z,1.93
2022-12-11T23:54:45.436Z,1.94
2022-12-11T23:57:12.260Z,1.92
2022-12-11T23:59:38.931Z,1.99
